Dundalk, Canada
Current Conditions -  °F | °C
As of 11:17 AM on Tuesday 21 Oct 2014 (Local Time) from CYBN Reporting Station
Light Rain Light Rain  
Wind Chill: 39°   Ceiling: 900
Heat Index: 45°   Visibility: 9mi
Dew Point: 45°   Wind: 10mph
Humidity: 100%   Direction: 10°N
Pressure: 29.93"   Gusts: NA
Location:  44.17°N, 80.38°W
Report Text: CYBN 211517Z AUTO 01009KT 9SM -RA OVC009 07/07 A2993
Loading
Personal Weather Stations






























Interactive Weather Map
Tropical Storm Tracking
New forecast layout! Learn more

10-Day Weather Forecast

Advertisements
Track Severe Weather on mobile